Time;durP1;ratioP1;P1;durP2;ratioP2;P2;SDS_P1;SDS_P2;PMS_P1;PMS_P2;Temp;Humidity;BMP_temperature;BMP_pressure;BME280_temperature;BME280_humidity;BME280_pressure;Samples;Min_cycle;Max_cycle;Signal;HPM_P1;HPM_P2
2021/01/26 00:01:18;;;;;;;11.00;7.00;;;-0.40;99.90;;;;;;6225791;23;19904;-82
2021/01/26 00:03:44;;;;;;;10.77;8.13;;;-0.40;99.90;;;;;;6225997;23;20004;-83
2021/01/26 00:06:10;;;;;;;10.35;7.28;;;-0.40;99.90;;;;;;6227285;23;20007;-82
2021/01/26 00:08:36;;;;;;;12.05;8.30;;;-0.40;99.90;;;;;;6226008;23;20015;-83
2021/01/26 00:11:03;;;;;;;10.07;7.88;;;-0.30;99.90;;;;;;6252610;23;20000;-83
2021/01/26 00:13:29;;;;;;;10.32;6.70;;;-0.30;99.90;;;;;;6225207;23;20439;-84
2021/01/26 00:15:55;;;;;;;10.43;7.32;;;-0.40;99.90;;;;;;6226967;23;19996;-82
2021/01/26 00:18:20;;;;;;;9.50;6.97;;;-0.40;99.90;;;;;;6226562;23;20004;-83
2021/01/26 00:20:47;;;;;;;10.75;7.15;;;-0.40;99.90;;;;;;6253760;23;20005;-83
2021/01/26 00:23:14;;;;;;;8.82;6.80;;;-0.40;99.90;;;;;;6225429;23;20004;-83
2021/01/26 00:25:41;;;;;;;12.40;7.20;;;-0.40;99.90;;;;;;6226807;23;20051;-83
2021/01/26 00:28:09;;;;;;;10.32;7.50;;;-0.50;99.90;;;;;;6253166;23;20027;-83
2021/01/26 00:30:36;;;;;;;13.23;7.53;;;-0.50;99.90;;;;;;6225834;23;20018;-84
2021/01/26 00:33:12;;;;;;;11.90;7.63;;;-0.40;99.90;;;;;;6252140;23;20095;-85
2021/01/26 00:35:38;;;;;;;12.88;7.97;;;-0.40;99.90;;;;;;6232998;23;20052;-81
2021/01/26 00:38:05;;;;;;;12.57;7.93;;;-0.50;99.90;;;;;;6241233;23;20008;-82
2021/01/26 00:40:31;;;;;;;13.75;8.65;;;-0.40;99.90;;;;;;6261588;23;20004;-84
2021/01/26 00:42:57;;;;;;;13.38;9.40;;;-0.40;99.90;;;;;;6226402;23;20005;-84
2021/01/26 00:45:25;;;;;;;14.32;9.07;;;-0.40;99.90;;;;;;6252416;23;20187;-84
2021/01/26 00:47:51;;;;;;;12.80;8.38;;;-0.40;99.90;;;;;;6254089;23;19992;-84
2021/01/26 00:50:18;;;;;;;15.10;8.80;;;-0.40;99.90;;;;;;6258528;22;19989;-81
2021/01/26 00:52:44;;;;;;;12.85;8.50;;;-0.40;99.90;;;;;;6241465;23;20019;-83
2021/01/26 00:55:10;;;;;;;11.05;7.75;;;-0.40;99.90;;;;;;6227681;23;20474;-83
2021/01/26 00:57:37;;;;;;;13.15;8.60;;;-0.40;99.90;;;;;;6224461;23;20012;-81
2021/01/26 01:00:07;;;;;;;12.05;8.43;;;-0.40;99.90;;;;;;6225090;23;20031;-84
2021/01/26 01:02:32;;;;;;;10.73;7.88;;;-0.40;99.90;;;;;;6250983;23;20082;-83
2021/01/26 01:04:58;;;;;;;12.52;8.38;;;-0.40;99.90;;;;;;6225731;23;20453;-83
2021/01/26 01:07:24;;;;;;;12.88;8.38;;;-0.40;99.90;;;;;;6232799;23;20021;-81
2021/01/26 01:09:49;;;;;;;12.48;8.15;;;-0.40;99.90;;;;;;6232113;23;20008;-84
2021/01/26 01:12:15;;;;;;;11.02;8.10;;;-0.40;99.90;;;;;;6226696;23;20035;-84
2021/01/26 01:14:41;;;;;;;11.95;8.25;;;-0.40;99.90;;;;;;6225407;23;20004;-84
2021/01/26 01:17:07;;;;;;;11.18;7.85;;;-0.40;99.90;;;;;;6253069;23;20008;-84
2021/01/26 01:19:33;;;;;;;9.55;6.85;;;-0.40;99.90;;;;;;6251728;23;20011;-84
2021/01/26 01:21:59;;;;;;;9.25;7.15;;;-0.40;99.90;;;;;;6252842;23;19997;-83
2021/01/26 01:24:24;;;;;;;11.98;8.35;;;-0.40;99.90;;;;;;6225991;23;20018;-84
2021/01/26 01:26:50;;;;;;;11.00;7.53;;;-0.40;99.90;;;;;;6224318;23;20058;-82
2021/01/26 01:29:16;;;;;;;11.45;7.80;;;-0.50;99.90;;;;;;6251140;23;20004;-84
2021/01/26 01:31:42;;;;;;;12.18;8.05;;;-0.40;99.90;;;;;;6225563;23;20118;-84
2021/01/26 01:34:08;;;;;;;12.35;8.32;;;-0.40;99.90;;;;;;6225897;23;20000;-84
2021/01/26 01:36:34;;;;;;;10.90;8.00;;;-0.40;99.90;;;;;;6252307;23;20428;-83
2021/01/26 01:39:00;;;;;;;14.02;8.85;;;-0.40;99.90;;;;;;6225334;23;20008;-83
2021/01/26 01:41:36;;;;;;;12.50;8.07;;;-0.40;99.90;;;;;;6240605;22;20007;-81
2021/01/26 01:44:03;;;;;;;10.38;7.30;;;-0.40;99.90;;;;;;6244631;22;19993;-81
2021/01/26 01:46:31;;;;;;;13.73;8.30;;;-0.40;99.90;;;;;;6271396;22;20000;-81
2021/01/26 01:49:01;;;;;;;10.25;7.28;;;-0.40;99.90;;;;;;6244706;22;20004;-81
2021/01/26 01:51:28;;;;;;;9.13;6.82;;;-0.30;99.90;;;;;;6245023;22;20124;-81
2021/01/26 01:54:01;;;;;;;12.40;7.80;;;-0.30;99.90;;;;;;6244383;22;20015;-81
2021/01/26 01:56:44;;;;;;;11.50;8.65;;;-0.30;99.90;;;;;;6245056;22;19992;-80
2021/01/26 01:59:24;;;;;;;9.77;7.32;;;-0.40;99.90;;;;;;6271713;22;20000;-80
2021/01/26 02:01:51;;;;;;;9.23;7.47;;;-0.40;99.90;;;;;;6270771;22;20000;-81
2021/01/26 02:04:19;;;;;;;10.15;7.22;;;-0.40;99.90;;;;;;6243902;22;20019;-81
2021/01/26 02:06:50;;;;;;;11.77;7.65;;;-0.30;99.90;;;;;;6244933;22;19992;-80
2021/01/26 02:09:19;;;;;;;11.95;8.00;;;-0.30;99.90;;;;;;6245071;22;20042;-81
2021/01/26 02:11:46;;;;;;;10.93;7.57;;;-0.30;99.90;;;;;;6244365;23;19997;-80
2021/01/26 02:14:13;;;;;;;10.98;7.68;;;-0.30;99.90;;;;;;6244166;22;20060;-82
2021/01/26 02:16:51;;;;;;;11.32;7.47;;;-0.30;99.90;;;;;;6224453;23;20317;-83
2021/01/26 02:19:41;;;;;;;12.30;7.93;;;-0.40;99.90;;;;;;6224339;23;20011;-84
2021/01/26 02:22:28;;;;;;;11.23;8.40;;;-0.30;99.90;;;;;;6222775;23;20000;-82
2021/01/26 02:25:36;;;;;;;11.20;8.00;;;-0.30;99.90;;;;;;6224326;23;20424;-83
2021/01/26 02:28:34;;;;;;;12.57;8.05;;;-0.30;99.90;;;;;;6223768;23;20049;-83
2021/01/26 02:31:27;;;;;;;12.75;7.78;;;-0.30;99.90;;;;;;6250705;23;20015;-83
2021/01/26 02:33:56;;;;;;;;;;;-0.30;99.90;;;;;;6222969;23;20007;-83
2021/01/26 02:37:00;;;;;;;10.68;7.55;;;-0.30;99.90;;;;;;6224536;23;20302;-84
2021/01/26 02:39:32;;;;;;;10.93;7.50;;;-0.40;99.90;;;;;;6134060;23;20145;-82
2021/01/26 02:42:05;;;;;;;11.77;8.15;;;-0.30;99.90;;;;;;6134033;23;20099;-83
2021/01/26 02:44:43;;;;;;;11.45;7.78;;;-0.40;99.90;;;;;;6184514;23;20008;-83
2021/01/26 02:47:09;;;;;;;11.48;8.27;;;-0.30;99.90;;;;;;6225274;23;20023;-84
2021/01/26 02:50:26;;;;;;;11.88;8.27;;;-0.40;99.90;;;;;;6225352;23;20425;-83
2021/01/26 02:53:29;;;;;;;12.38;8.50;;;-0.40;99.90;;;;;;6213472;23;20054;-83
2021/01/26 02:56:02;;;;;;;;;;;-0.40;99.90;;;;;;6224689;23;20063;-83
2021/01/26 02:58:39;;;;;;;;;;;-0.40;99.90;;;;;;6249576;23;20350;-84
2021/01/26 03:01:05;;;;;;;13.90;8.70;;;-0.40;99.90;;;;;;6224099;23;19899;-83
2021/01/26 03:03:50;;;;;;;12.43;7.55;;;-0.40;99.90;;;;;;6222426;23;20007;-83
2021/01/26 03:06:18;;;;;;;10.73;7.35;;;-0.40;99.90;;;;;;6224225;23;20000;-84
2021/01/26 03:08:49;;;;;;;11.43;7.90;;;-0.40;99.90;;;;;;6250636;23;20000;-84
2021/01/26 03:12:03;;;;;;;11.30;8.32;;;-0.40;99.90;;;;;;6223269;23;20079;-82
2021/01/26 03:14:52;;;;;;;12.48;8.50;;;-0.40;99.90;;;;;;6219501;23;20030;-82
2021/01/26 03:17:34;;;;;;;11.98;7.95;;;-0.40;99.90;;;;;;6228814;23;20008;-84
2021/01/26 03:20:14;;;;;;;11.30;7.38;;;-0.30;99.90;;;;;;6254290;23;20067;-84
2021/01/26 03:22:44;;;;;;;9.45;6.18;;;-0.40;99.90;;;;;;6250778;23;20008;-83
2021/01/26 03:25:10;;;;;;;7.75;6.00;;;-0.40;99.90;;;;;;6250873;23;20278;-83
2021/01/26 03:27:41;;;;;;;9.93;7.15;;;-0.40;99.90;;;;;;6223602;23;20046;-83
2021/01/26 03:30:10;;;;;;;9.32;6.55;;;-0.50;99.90;;;;;;6253818;23;20004;-83
2021/01/26 03:32:43;;;;;;;11.00;7.25;;;-0.50;99.90;;;;;;6231109;23;20100;-83
2021/01/26 03:35:09;;;;;;;10.40;7.05;;;-0.50;99.90;;;;;;6223715;23;20131;-83
2021/01/26 03:37:40;;;;;;;11.13;7.47;;;-0.50;99.90;;;;;;6225064;23;20004;-82
2021/01/26 03:40:07;;;;;;;10.10;6.53;;;-0.50;99.90;;;;;;6250633;23;20064;-83
2021/01/26 03:42:34;;;;;;;11.68;7.93;;;-0.50;99.90;;;;;;6225126;23;20008;-83
2021/01/26 03:45:01;;;;;;;9.60;7.10;;;-0.60;99.90;;;;;;6251376;23;20012;-84
2021/01/26 03:47:47;;;;;;;10.48;7.50;;;-0.60;99.90;;;;;;6224351;23;20011;-83
2021/01/26 03:50:46;;;;;;;13.65;8.73;;;-0.60;99.90;;;;;;6224384;23;20004;-84
2021/01/26 03:53:23;;;;;;;12.48;8.07;;;-0.50;99.90;;;;;;6210823;23;20087;-83
2021/01/26 03:56:07;;;;;;;13.20;8.57;;;-0.50;99.90;;;;;;6222982;23;20000;-84
2021/01/26 03:59:03;;;;;;;12.77;8.10;;;-0.50;99.90;;;;;;6222939;23;20004;-85
2021/01/26 04:01:53;;;;;;;13.65;9.80;;;-0.50;99.90;;;;;;6222970;23;20015;-84
2021/01/26 04:04:33;;;;;;;15.98;9.02;;;-0.50;99.90;;;;;;6224011;23;20008;-83
2021/01/26 04:07:02;;;;;;;16.70;9.20;;;-0.50;99.90;;;;;;6223914;23;20428;-84
2021/01/26 04:09:39;;;;;;;14.50;9.60;;;-0.40;99.90;;;;;;6251575;23;20044;-83
2021/01/26 04:12:20;;;;;;;15.60;9.90;;;-0.50;99.90;;;;;;6223549;23;20161;-84
2021/01/26 04:14:56;;;;;;;15.88;9.55;;;-0.50;99.90;;;;;;6223899;23;20001;-83
2021/01/26 04:17:30;;;;;;;15.70;10.07;;;-0.50;99.90;;;;;;6223845;23;20048;-83
2021/01/26 04:20:06;;;;;;;15.63;10.13;;;-0.50;99.90;;;;;;6223462;23;20000;-85
2021/01/26 04:22:33;;;;;;;15.32;10.80;;;-0.50;99.90;;;;;;6222692;23;20004;-85
2021/01/26 04:24:58;;;;;;;17.90;10.93;;;-0.50;99.90;;;;;;6223656;23;20011;-84
2021/01/26 04:27:25;;;;;;;17.65;11.07;;;-0.60;99.90;;;;;;6232896;23;19993;-83
2021/01/26 04:29:52;;;;;;;20.63;10.32;;;-0.60;99.90;;;;;;6234254;23;20031;-84
2021/01/26 04:32:20;;;;;;;13.18;8.82;;;-0.70;99.90;;;;;;6225397;23;20057;-84
2021/01/26 04:34:46;;;;;;;15.93;9.35;;;-0.70;99.90;;;;;;6224611;23;20337;-84
2021/01/26 04:37:13;;;;;;;16.20;9.57;;;-0.70;99.90;;;;;;6218852;23;20064;-84
2021/01/26 04:39:38;;;;;;;13.55;8.95;;;-0.70;99.90;;;;;;6223134;23;20004;-84
2021/01/26 04:42:15;;;;;;;13.38;9.10;;;-0.80;99.90;;;;;;6223931;23;20404;-84
2021/01/26 04:45:06;;;;;;;14.32;9.63;;;-0.80;99.90;;;;;;6251937;23;20001;-83
2021/01/26 04:47:51;;;;;;;14.50;9.07;;;-0.80;99.90;;;;;;6255764;23;20079;-83
2021/01/26 04:50:45;;;;;;;14.52;9.50;;;-0.80;99.90;;;;;;6226364;23;20005;-82
2021/01/26 04:53:43;;;;;;;14.30;9.30;;;-0.80;99.90;;;;;;6224872;23;20004;-83
2021/01/26 04:56:29;;;;;;;17.75;9.57;;;-0.90;99.90;;;;;;6204003;23;20015;-83
2021/01/26 04:59:05;;;;;;;11.88;7.93;;;-0.80;99.90;;;;;;6220638;23;20008;-83
2021/01/26 05:01:58;;;;;;;11.93;7.80;;;-0.90;99.90;;;;;;6224335;23;20008;-83
2021/01/26 05:04:37;;;;;;;12.77;8.77;;;-0.90;99.90;;;;;;6225902;23;20084;-82
2021/01/26 05:07:26;;;;;;;14.30;8.70;;;-0.90;99.90;;;;;;6257414;23;20034;-82
2021/01/26 05:10:04;;;;;;;12.15;8.07;;;-0.90;99.90;;;;;;6216615;23;20000;-86
2021/01/26 05:12:39;;;;;;;11.52;8.10;;;-0.90;99.90;;;;;;6256323;23;20004;-85
2021/01/26 05:15:09;;;;;;;13.32;8.23;;;-0.90;99.90;;;;;;6231313;23;20074;-82
2021/01/26 05:17:41;;;;;;;10.93;7.43;;;-0.90;99.90;;;;;;6266024;23;20000;-84
2021/01/26 05:20:22;;;;;;;16.38;9.20;;;-0.90;99.90;;;;;;6261714;23;20046;-86
2021/01/26 05:22:57;;;;;;;12.95;7.50;;;-0.90;99.90;;;;;;6241956;23;20011;-83
2021/01/26 05:25:24;;;;;;;12.60;7.63;;;-0.90;99.90;;;;;;6262817;23;20007;-83
2021/01/26 05:27:51;;;;;;;15.18;8.32;;;-0.90;99.90;;;;;;6255694;23;20038;-83
2021/01/26 05:30:29;;;;;;;12.85;7.57;;;-0.90;99.90;;;;;;6226046;23;20340;-83
2021/01/26 05:33:01;;;;;;;14.30;7.40;;;-0.90;99.90;;;;;;6225265;23;20102;-82
2021/01/26 05:35:27;;;;;;;11.27;7.65;;;-0.90;99.90;;;;;;6254236;23;20419;-84
2021/01/26 05:37:54;;;;;;;12.75;7.20;;;-0.90;99.90;;;;;;6225362;23;20005;-85
2021/01/26 05:40:30;;;;;;;11.65;7.43;;;-0.90;99.90;;;;;;6224835;23;20011;-85
2021/01/26 05:43:02;;;;;;;12.93;7.80;;;-0.90;99.90;;;;;;6227471;23;20091;-85
2021/01/26 05:45:32;;;;;;;12.07;7.00;;;-0.90;99.90;;;;;;6225661;23;20062;-82
2021/01/26 05:48:07;;;;;;;11.80;7.47;;;-0.90;99.90;;;;;;6225159;23;20008;-84
2021/01/26 05:50:35;;;;;;;13.43;8.73;;;-0.90;99.90;;;;;;6250957;23;20000;-84
2021/01/26 05:53:10;;;;;;;13.70;8.38;;;-0.90;99.90;;;;;;6250128;23;20000;-82
2021/01/26 05:55:36;;;;;;;11.85;7.65;;;-0.90;99.90;;;;;;6227364;23;20004;-82
2021/01/26 05:58:13;;;;;;;15.60;8.43;;;-0.90;99.90;;;;;;6228054;23;20015;-80
2021/01/26 06:00:40;;;;;;;13.43;7.75;;;-0.90;99.90;;;;;;6228322;23;20008;-80
2021/01/26 06:03:10;;;;;;;11.90;7.60;;;-0.90;99.90;;;;;;6255408;23;20004;-82
2021/01/26 06:05:36;;;;;;;12.95;7.85;;;-0.90;99.90;;;;;;6226473;23;20004;-82
2021/01/26 06:08:12;;;;;;;12.98;6.95;;;-0.80;99.90;;;;;;6228552;23;20004;-82
2021/01/26 06:10:41;;;;;;;17.02;8.48;;;-0.90;99.90;;;;;;6231266;23;20443;-81
2021/01/26 06:13:07;;;;;;;12.88;7.68;;;-0.90;99.90;;;;;;6230133;23;20012;-81
2021/01/26 06:15:37;;;;;;;12.30;7.22;;;-0.90;99.90;;;;;;6257580;23;20000;-81
2021/01/26 06:18:19;;;;;;;11.65;7.40;;;-0.90;99.90;;;;;;6232835;23;20003;-82
2021/01/26 06:21:08;;;;;;;11.95;7.25;;;-0.90;99.90;;;;;;6231036;23;20063;-83
2021/01/26 06:23:36;;;;;;;12.82;7.60;;;-0.90;99.90;;;;;;6230206;22;19994;-83
2021/01/26 06:26:05;;;;;;;15.60;7.68;;;-0.80;99.90;;;;;;6255215;23;20004;-81
2021/01/26 06:28:45;;;;;;;12.15;7.47;;;-0.90;99.90;;;;;;6228305;23;20008;-83
2021/01/26 06:31:42;;;;;;;13.02;7.10;;;-0.90;99.90;;;;;;6228078;23;20027;-83
2021/01/26 06:34:33;;;;;;;11.70;7.13;;;-0.90;99.20;;;;;;6224779;23;20000;-83
2021/01/26 06:37:07;;;;;;;13.52;6.97;;;-0.90;99.20;;;;;;6227409;23;20020;-84
2021/01/26 06:39:39;;;;;;;10.02;6.75;;;-0.90;99.20;;;;;;6230293;23;20008;-84
2021/01/26 06:42:34;;;;;;;10.45;6.70;;;-0.90;99.30;;;;;;6228692;23;20026;-83
2021/01/26 06:45:21;;;;;;;13.02;6.47;;;-0.90;99.40;;;;;;6246937;22;20078;-84
2021/01/26 06:48:11;;;;;;;10.05;6.18;;;-0.90;99.30;;;;;;6254023;23;20004;-85
2021/01/26 06:50:46;;;;;;;9.90;5.97;;;-0.90;98.50;;;;;;6243733;22;20000;-80
2021/01/26 06:53:44;;;;;;;10.70;5.72;;;-0.90;98.50;;;;;;6260166;23;20027;-85
2021/01/26 06:56:39;;;;;;;11.13;6.22;;;-0.90;98.30;;;;;;6208141;23;20042;-83
2021/01/26 06:59:36;;;;;;;9.73;5.88;;;-0.90;98.20;;;;;;6222707;23;20024;-84
2021/01/26 07:02:26;;;;;;;10.13;6.32;;;-0.90;97.90;;;;;;6246639;23;20023;-84
2021/01/26 07:05:14;;;;;;;9.45;5.75;;;-0.80;98.00;;;;;;6221326;23;20027;-83
2021/01/26 07:08:03;;;;;;;11.63;5.45;;;-0.80;97.40;;;;;;6221755;23;20014;-83
2021/01/26 07:10:54;;;;;;;8.73;5.82;;;-0.80;97.40;;;;;;6224212;23;20007;-84
2021/01/26 07:14:10;;;;;;;9.63;5.93;;;-0.80;97.50;;;;;;6225330;23;20008;-85
2021/01/26 07:16:42;;;;;;;9.15;5.70;;;-0.80;97.30;;;;;;6224308;23;20026;-84
2021/01/26 07:19:42;;;;;;;9.65;5.75;;;-0.80;96.80;;;;;;6253913;23;20004;-85
2021/01/26 07:22:46;;;;;;;7.85;4.65;;;-0.80;97.00;;;;;;6225727;23;20015;-84
2021/01/26 07:25:18;;;;;;;10.88;5.80;;;-0.80;97.20;;;;;;6251597;23;20004;-84
2021/01/26 07:27:44;;;;;;;;;;;-0.80;97.50;;;;;;6225450;23;20000;-84
2021/01/26 07:30:48;;;;;;;10.07;4.85;;;-0.90;98.10;;;;;;6225138;23;19931;-84
2021/01/26 07:33:35;;;;;;;8.32;5.00;;;-0.80;98.70;;;;;;6224749;23;20321;-84
2021/01/26 07:36:23;;;;;;;8.63;5.72;;;-0.90;99.20;;;;;;6225049;23;20026;-85
2021/01/26 07:39:22;;;;;;;7.78;4.22;;;-0.90;99.30;;;;;;6249997;23;20054;-84
2021/01/26 07:42:32;;;;;;;7.95;4.32;;;-0.90;98.90;;;;;;6250682;23;20026;-83
2021/01/26 07:45:17;;;;;;;8.55;4.25;;;-1.00;99.10;;;;;;6176909;23;20124;-84
2021/01/26 07:47:55;;;;;;;9.63;5.07;;;-1.00;99.50;;;;;;6252163;23;20067;-84
2021/01/26 07:50:26;;;;;;;8.43;4.78;;;-1.00;99.90;;;;;;6227842;23;20060;-84
2021/01/26 07:53:00;;;;;;;8.38;4.40;;;-1.00;99.90;;;;;;6255054;23;20008;-85
2021/01/26 07:55:47;;;;;;;9.95;5.50;;;-1.00;99.90;;;;;;6228586;23;20000;-84
2021/01/26 07:58:15;;;;;;;7.68;4.95;;;-1.00;99.90;;;;;;6228673;23;20011;-84
2021/01/26 08:00:55;;;;;;;8.90;4.85;;;-1.10;99.90;;;;;;6229239;23;20015;-85
2021/01/26 08:03:27;;;;;;;18.17;5.57;;;-1.10;99.90;;;;;;6227521;23;20008;-84
2021/01/26 08:05:55;;;;;;;9.13;5.53;;;-1.10;99.90;;;;;;6227133;23;20012;-84
2021/01/26 11:25:29;;;;;;;5.60;2.95;;;0.70;94.80;;;;;;6235778;22;20075;-82
2021/01/26 11:27:55;;;;;;;7.15;2.83;;;0.90;94.00;;;;;;6230512;23;20008;-87
2021/01/26 11:30:25;;;;;;;4.50;3.13;;;1.00;93.80;;;;;;6232694;23;20052;-86
2021/01/26 11:32:53;;;;;;;6.85;3.33;;;1.00;93.10;;;;;;6233217;23;20010;-87
2021/01/26 11:35:23;;;;;;;5.43;3.20;;;0.90;93.30;;;;;;6232262;23;20073;-88
2021/01/26 11:37:51;;;;;;;5.93;3.22;;;0.80;93.50;;;;;;6231787;23;20000;-91
2021/01/26 11:40:18;;;;;;;6.03;3.30;;;0.70;93.90;;;;;;6233263;23;20007;-88
2021/01/26 11:42:44;;;;;;;8.27;3.10;;;0.60;93.50;;;;;;6225463;23;20008;-88
2021/01/26 11:45:17;;;;;;;7.40;3.17;;;0.60;94.20;;;;;;6229470;23;20030;-88
2021/01/26 11:47:42;;;;;;;6.57;2.83;;;0.50;94.00;;;;;;6255091;23;20082;-86
2021/01/26 11:50:11;;;;;;;5.32;2.60;;;0.50;94.20;;;;;;6229002;23;20004;-90
2021/01/26 11:52:40;;;;;;;5.90;2.88;;;0.50;94.80;;;;;;6231701;23;20023;-89
2021/01/26 11:55:15;;;;;;;5.30;2.53;;;0.50;94.30;;;;;;6255947;23;20004;-90
2021/01/26 11:57:42;;;;;;;4.00;2.30;;;0.50;93.80;;;;;;6224937;23;20004;-90
2021/01/26 12:00:10;;;;;;;8.52;2.35;;;0.60;93.90;;;;;;6255999;23;20011;-89
2021/01/26 12:02:35;;;;;;;6.65;2.78;;;0.60;94.40;;;;;;6229278;23;20007;-90
2021/01/26 12:05:06;;;;;;;4.93;2.70;;;0.60;94.10;;;;;;6229735;23;20488;-89
2021/01/26 12:07:38;;;;;;;5.70;2.60;;;0.60;93.50;;;;;;6231449;23;19999;-89
2021/01/26 12:10:11;;;;;;;8.00;2.50;;;0.60;93.20;;;;;;6230513;23;20487;-89
2021/01/26 12:12:38;;;;;;;3.88;2.42;;;0.50;93.20;;;;;;6229936;23;20015;-90
2021/01/26 12:15:12;;;;;;;5.00;2.72;;;0.50;94.00;;;;;;6230324;23;20336;-89
2021/01/26 12:17:38;;;;;;;5.78;2.60;;;0.50;93.70;;;;;;6258052;23;20004;-89
2021/01/26 12:20:05;;;;;;;6.72;2.53;;;0.60;94.20;;;;;;6231097;23;20014;-89
2021/01/26 12:22:31;;;;;;;7.38;2.20;;;0.60;93.20;;;;;;6231360;23;20011;-90
2021/01/26 12:24:56;;;;;;;6.45;3.17;;;0.60;93.00;;;;;;6231466;23;20012;-89
2021/01/26 12:27:22;;;;;;;4.22;2.45;;;0.70;93.00;;;;;;6255008;23;20000;-89
2021/01/26 12:29:48;;;;;;;3.80;1.90;;;0.70;92.80;;;;;;6224375;23;20054;-90
2021/01/26 12:32:14;;;;;;;8.30;2.97;;;0.70;92.70;;;;;;6255446;23;20019;-89
2021/01/26 12:34:40;;;;;;;5.22;2.25;;;0.80;92.70;;;;;;6256800;23;20004;-89
2021/01/26 12:37:07;;;;;;;8.23;2.90;;;0.70;92.20;;;;;;6259123;23;20003;-91
2021/01/26 12:39:33;;;;;;;2.92;2.35;;;0.80;92.20;;;;;;6261966;23;19999;-89
2021/01/26 12:41:58;;;;;;;6.53;2.80;;;0.80;92.30;;;;;;6264671;22;20012;-89
2021/01/26 12:44:24;;;;;;;3.80;2.50;;;0.80;92.30;;;;;;6268830;23;20007;-89
2021/01/26 12:46:53;;;;;;;5.38;2.20;;;0.80;92.30;;;;;;6232135;23;20007;-89
2021/01/26 12:49:23;;;;;;;3.63;2.38;;;0.80;92.00;;;;;;6231173;23;20068;-89
2021/01/26 12:51:49;;;;;;;10.85;2.58;;;0.70;92.00;;;;;;6231192;23;20020;-89
2021/01/26 12:54:15;;;;;;;3.00;2.08;;;0.90;92.90;;;;;;6229993;23;20063;-89
2021/01/26 12:56:40;;;;;;;3.80;1.92;;;0.90;91.90;;;;;;6229341;23;20459;-90
2021/01/26 12:59:06;;;;;;;4.45;2.05;;;0.80;92.00;;;;;;6225877;23;20091;-89
2021/01/26 13:01:32;;;;;;;7.47;2.25;;;1.00;92.80;;;;;;6254356;23;20016;-88
2021/01/26 13:03:58;;;;;;;5.22;2.10;;;1.10;91.10;;;;;;6225952;23;20479;-89
2021/01/26 13:06:23;;;;;;;6.15;2.30;;;1.10;91.40;;;;;;6252718;23;20011;-90
2021/01/26 13:08:49;;;;;;;6.70;2.17;;;1.30;90.60;;;;;;6223323;23;20462;-89
2021/01/26 13:11:15;;;;;;;6.15;1.85;;;1.40;90.20;;;;;;6224293;23;20000;-90
2021/01/26 13:13:40;;;;;;;8.10;2.83;;;1.40;90.20;;;;;;6220780;23;20007;-89
2021/01/26 13:16:06;;;;;;;6.53;2.20;;;1.50;89.60;;;;;;6225924;23;20027;-89
2021/01/26 13:18:35;;;;;;;7.30;2.67;;;1.40;89.30;;;;;;6228219;23;20428;-87
2021/01/26 13:21:00;;;;;;;8.32;2.10;;;1.30;89.80;;;;;;6255209;23;20001;-88
2021/01/26 13:23:36;;;;;;;14.02;2.10;;;1.30;90.20;;;;;;6253864;23;20490;-88
2021/01/26 13:26:04;;;;;;;2.75;1.75;;;1.20;90.30;;;;;;6225401;23;20088;-88
2021/01/26 13:28:31;;;;;;;5.72;2.05;;;1.00;90.60;;;;;;6222914;23;20336;-88
2021/01/26 13:30:56;;;;;;;5.20;2.05;;;0.80;90.60;;;;;;6226657;23;19996;-87
2021/01/26 13:33:22;;;;;;;3.83;1.92;;;0.80;90.80;;;;;;6227724;23;20000;-88
2021/01/26 13:35:48;;;;;;;4.18;1.80;;;0.80;91.20;;;;;;6229496;23;20056;-89
2021/01/26 13:38:13;;;;;;;7.43;2.17;;;0.80;91.40;;;;;;6223727;23;20010;-88
2021/01/26 13:40:39;;;;;;;6.68;2.38;;;0.80;91.10;;;;;;6226708;23;20004;-88
2021/01/26 13:43:05;;;;;;;2.95;1.95;;;0.80;91.60;;;;;;6253862;23;20008;-89
2021/01/26 13:45:35;;;;;;;7.72;2.63;;;0.70;91.90;;;;;;6226741;23;20004;-88
2021/01/26 13:48:02;;;;;;;5.78;2.50;;;0.70;92.00;;;;;;6253123;23;20027;-88
2021/01/26 13:50:31;;;;;;;2.92;1.80;;;0.60;92.10;;;;;;6226609;23;20008;-88
2021/01/26 13:52:57;;;;;;;3.78;2.15;;;0.60;92.40;;;;;;6225461;23;20035;-89
2021/01/26 13:55:25;;;;;;;3.95;2.10;;;0.70;92.80;;;;;;6223782;23;20000;-88
2021/01/26 13:57:51;;;;;;;3.00;2.13;;;0.80;92.20;;;;;;6254498;23;20332;-89
2021/01/26 14:00:19;;;;;;;6.90;2.47;;;0.70;91.40;;;;;;6256095;23;20019;-88
2021/01/26 14:02:48;;;;;;;5.03;2.15;;;0.60;91.90;;;;;;6254207;23;20067;-89
2021/01/26 14:05:14;;;;;;;5.90;2.75;;;0.60;92.00;;;;;;6227966;23;20028;-88
2021/01/26 14:07:40;;;;;;;6.55;2.65;;;0.60;92.40;;;;;;6253273;23;20011;-89
2021/01/26 14:10:08;;;;;;;3.67;2.13;;;0.50;92.30;;;;;;6253411;23;20000;-88
2021/01/26 14:12:34;;;;;;;7.65;2.47;;;0.40;92.80;;;;;;6228999;23;20004;-89
2021/01/26 14:15:00;;;;;;;8.10;2.45;;;0.40;92.50;;;;;;6256858;23;20482;-90
2021/01/26 14:17:26;;;;;;;3.90;2.22;;;0.40;92.70;;;;;;6255629;23;20091;-90
2021/01/26 14:19:51;;;;;;;9.90;2.55;;;0.40;92.90;;;;;;6255038;23;20023;-90
2021/01/26 14:22:17;;;;;;;3.67;2.13;;;0.40;92.50;;;;;;6228643;23;20058;-90
2021/01/26 14:24:43;;;;;;;3.90;2.13;;;0.50;92.10;;;;;;6228819;23;20075;-89
2021/01/26 14:27:09;;;;;;;6.43;2.17;;;0.50;91.80;;;;;;6254068;23;20000;-89
2021/01/26 14:29:35;;;;;;;6.88;2.30;;;0.60;91.30;;;;;;6228909;23;20012;-90
2021/01/26 14:32:06;;;;;;;4.47;1.95;;;0.50;91.30;;;;;;6224608;23;20000;-89
2021/01/26 14:34:31;;;;;;;6.90;2.65;;;0.50;91.10;;;;;;6228426;23;20000;-90
2021/01/26 14:36:57;;;;;;;3.70;2.05;;;0.50;90.80;;;;;;6228431;23;20375;-89
2021/01/26 14:39:23;;;;;;;6.88;2.60;;;0.60;90.70;;;;;;6228439;23;20050;-89
2021/01/26 14:41:49;;;;;;;7.47;2.65;;;0.60;90.90;;;;;;6255328;23;20026;-91
2021/01/26 14:44:20;;;;;;;3.35;2.35;;;0.70;90.80;;;;;;6254168;23;20022;-89
2021/01/26 14:46:46;;;;;;;4.60;1.90;;;0.80;90.10;;;;;;6228149;23;20000;-89
2021/01/26 14:49:11;;;;;;;6.03;2.20;;;0.80;89.60;;;;;;6230350;23;20290;-90
2021/01/26 14:51:37;;;;;;;4.00;1.83;;;0.70;89.10;;;;;;6228304;23;20058;-90
2021/01/26 14:54:03;;;;;;;3.75;1.98;;;0.70;89.50;;;;;;6228366;23;20032;-89
2021/01/26 14:56:34;;;;;;;11.85;4.93;;;0.70;90.10;;;;;;6227948;23;20336;-89
2021/01/26 14:59:00;;;;;;;6.95;3.85;;;0.70;89.80;;;;;;6228028;23;20020;-90
2021/01/26 15:01:34;;;;;;;6.50;2.35;;;0.60;89.90;;;;;;6226747;23;20042;-90
2021/01/26 15:04:01;;;;;;;6.90;2.38;;;0.70;90.00;;;;;;6255388;23;20075;-90
2021/01/26 15:06:26;;;;;;;6.85;2.92;;;0.70;89.70;;;;;;6227581;23;20000;-91
2021/01/26 15:08:53;;;;;;;5.13;2.50;;;0.70;90.10;;;;;;6229041;23;20027;-90
2021/01/26 15:11:21;;;;;;;5.03;2.10;;;0.80;90.10;;;;;;6227962;23;20000;-90
2021/01/26 15:13:50;;;;;;;4.93;2.42;;;0.80;90.00;;;;;;6227532;23;19996;-90
2021/01/26 15:16:15;;;;;;;4.38;1.98;;;0.70;89.60;;;;;;6255279;22;20443;-90
2021/01/26 15:18:46;;;;;;;6.28;2.30;;;0.70;90.00;;;;;;6228731;23;20010;-90
2021/01/26 15:21:34;;;;;;;5.20;2.80;;;0.60;90.00;;;;;;6229240;23;20074;-90
2021/01/26 15:24:14;;;;;;;;;;;;;;;;;;;;;
2021/01/26 15:29:47;;;;;;;4.27;2.57;;;0.50;90.90;;;;;;6256306;23;20085;-90
2021/01/26 15:32:34;;;;;;;6.30;2.40;;;0.60;90.90;;;;;;6241677;23;19996;-91
2021/01/26 15:35:19;;;;;;;6.43;2.55;;;0.50;91.40;;;;;;6242827;23;20026;-91
2021/01/26 15:37:56;;;;;;;7.10;2.70;;;0.40;92.20;;;;;;6243021;23;20007;-91
2021/01/26 15:40:23;;;;;;;8.98;2.30;;;0.30;93.30;;;;;;6245387;23;20012;-90
2021/01/26 15:42:49;;;;;;;5.22;2.53;;;0.20;93.90;;;;;;6232557;23;20004;-90
2021/01/26 15:45:29;;;;;;;3.78;1.98;;;0.10;94.40;;;;;;6231424;23;20023;-89
2021/01/26 15:48:03;;;;;;;8.80;2.15;;;0.10;94.40;;;;;;6229102;23;20015;-90
2021/01/26 15:50:59;;;;;;;6.40;2.72;;;0.10;94.80;;;;;;6230094;23;20015;-91
2021/01/26 15:53:34;;;;;;;4.22;2.35;;;0.10;94.20;;;;;;6149249;23;20024;-90
2021/01/26 15:56:27;;;;;;;3.85;2.15;;;0.10;94.30;;;;;;6228571;23;20443;-90
2021/01/26 15:58:59;;;;;;;5.60;2.30;;;0.20;94.20;;;;;;6227525;23;19996;-90
2021/01/26 16:04:18;;;;;;;9.30;2.80;;;0.20;94.60;;;;;;6264064;23;20015;-90
2021/01/26 16:07:17;;;;;;;4.47;2.63;;;0.10;94.70;;;;;;6228344;23;20004;-89
2021/01/26 16:10:04;;;;;;;7.07;2.53;;;0.10;95.10;;;;;;6226095;23;20050;-90
2021/01/26 16:12:32;;;;;;;7.95;2.88;;;0.00;96.30;;;;;;6226257;23;20007;-89
2021/01/26 16:15:03;;;;;;;5.88;3.28;;;-0.10;97.50;;;;;;6225336;23;20444;-90
2021/01/26 16:17:28;;;;;;;7.55;3.00;;;-0.10;98.30;;;;;;6226387;23;20074;-90
2021/01/26 16:20:03;;;;;;;7.18;2.78;;;-0.10;98.50;;;;;;6226623;23;20397;-90
2021/01/26 16:22:32;;;;;;;5.53;2.83;;;-0.10;98.50;;;;;;6253808;23;20008;-89
2021/01/26 16:25:11;;;;;;;7.22;3.05;;;-0.20;98.50;;;;;;6224205;23;20102;-89
2021/01/26 16:27:43;;;;;;;7.07;3.05;;;-0.20;99.00;;;;;;6225722;23;20004;-91
2021/01/26 16:30:10;;;;;;;5.82;2.65;;;-0.20;99.10;;;;;;6222835;23;20370;-89
2021/01/26 16:32:36;;;;;;;8.95;5.07;;;-0.20;99.10;;;;;;6222797;23;20004;-90
2021/01/26 16:35:03;;;;;;;4.15;2.35;;;-0.20;98.80;;;;;;6224924;23;20369;-90
2021/01/26 16:37:29;;;;;;;5.70;2.75;;;-0.20;98.80;;;;;;6225757;23;20011;-90
2021/01/26 16:40:29;;;;;;;20.00;8.90;;;-0.20;98.80;;;;;;6224649;23;20027;-90
2021/01/26 16:43:07;;;;;;;11.73;4.90;;;-0.10;98.70;;;;;;6225569;23;20000;-89